createdAt,value
2023-01-31T00:00:00.626Z,98.89
2023-01-31T00:02:29.922Z,99.25
2023-01-31T00:05:00.057Z,99.42
2023-01-31T00:07:28.094Z,99.52
2023-01-31T00:09:55.929Z,100.00
2023-01-31T00:12:23.599Z,100.00
2023-01-31T00:14:51.308Z,100.00
2023-01-31T00:17:18.928Z,99.92
2023-01-31T00:19:46.525Z,99.73
2023-01-31T00:22:14.150Z,99.28
2023-01-31T00:24:41.770Z,98.73
2023-01-31T00:27:09.342Z,98.27
2023-01-31T00:29:37.689Z,97.93
2023-01-31T00:32:05.878Z,97.80
2023-01-31T00:34:33.500Z,97.84
2023-01-31T00:37:01.128Z,97.72
2023-01-31T00:39:29.286Z,97.18
2023-01-31T00:41:56.866Z,97.22
2023-01-31T00:44:24.780Z,97.01
2023-01-31T00:46:52.464Z,96.69
2023-01-31T00:49:20.089Z,96.50
2023-01-31T00:51:48.026Z,96.36
2023-01-31T00:54:20.375Z,96.28
2023-01-31T00:56:50.501Z,95.91
2023-01-31T00:59:18.250Z,95.64
2023-01-31T01:01:45.842Z,95.18
2023-01-31T01:04:15.797Z,94.68
2023-01-31T01:06:43.389Z,93.99
2023-01-31T01:09:11.117Z,92.61
2023-01-31T01:11:38.709Z,91.80
2023-01-31T01:14:06.312Z,92.01
2023-01-31T01:16:38.085Z,91.56
2023-01-31T01:19:10.660Z,90.47
2023-01-31T01:21:39.603Z,90.62
2023-01-31T01:24:18.977Z,90.31
2023-01-31T01:26:47.338Z,89.73
2023-01-31T01:29:15.319Z,89.56
2023-01-31T01:31:45.232Z,89.15
2023-01-31T01:34:15.472Z,88.67
2023-01-31T01:36:46.759Z,89.00
2023-01-31T01:39:16.563Z,88.67
2023-01-31T01:41:44.377Z,88.33
2023-01-31T01:44:53.568Z,88.13
2023-01-31T01:47:39.063Z,87.74
2023-01-31T01:50:12.428Z,87.04
2023-01-31T01:52:46.300Z,86.87
2023-01-31T01:55:20.319Z,86.46
2023-01-31T01:57:51.751Z,86.23
2023-01-31T02:00:29.611Z,86.09
2023-01-31T02:03:00.802Z,86.24
2023-01-31T02:05:53.698Z,86.02
2023-01-31T02:08:24.642Z,85.95
2023-01-31T02:11:07.808Z,86.41
2023-01-31T02:13:39.946Z,86.28
2023-01-31T02:16:09.429Z,86.31
2023-01-31T02:18:39.539Z,85.80
2023-01-31T02:21:50.531Z,85.79
2023-01-31T02:24:30.964Z,85.59
2023-01-31T02:27:19.581Z,84.86
2023-01-31T02:30:05.933Z,84.77
2023-01-31T02:32:39.726Z,85.00
2023-01-31T02:35:31.703Z,85.01
2023-01-31T02:38:14.391Z,84.96
2023-01-31T02:40:58.630Z,84.64
2023-01-31T02:43:26.258Z,84.11
2023-01-31T02:46:07.995Z,83.56
2023-01-31T02:48:58.812Z,83.74
2023-01-31T02:51:33.073Z,83.91
2023-01-31T02:54:47.240Z,83.40
2023-01-31T02:57:14.052Z,83.08
2023-01-31T02:59:44.426Z,83.13
2023-01-31T03:02:14.944Z,83.58
2023-01-31T03:04:43.069Z,83.87
2023-01-31T03:07:31.551Z,83.99
2023-01-31T03:10:13.782Z,84.07
2023-01-31T03:13:08.018Z,84.24
2023-01-31T03:16:04.520Z,84.11
2023-01-31T03:18:45.499Z,84.40
2023-01-31T03:21:22.627Z,83.99
2023-01-31T03:23:54.723Z,84.08
2023-01-31T03:26:23.930Z,84.27
2023-01-31T03:28:57.235Z,84.18
2023-01-31T03:31:32.108Z,83.82
2023-01-31T03:34:05.670Z,83.39
2023-01-31T03:37:15.529Z,83.28
2023-01-31T03:39:54.855Z,82.64
2023-01-31T03:42:43.330Z,82.74
2023-01-31T03:45:24.367Z,83.14
2023-01-31T03:47:55.498Z,83.35
2023-01-31T03:50:29.015Z,83.66
2023-01-31T03:53:06.258Z,83.54
2023-01-31T03:55:53.718Z,84.06
2023-01-31T03:58:27.202Z,83.86
2023-01-31T04:00:58.440Z,84.07
2023-01-31T04:03:37.289Z,83.92
2023-01-31T04:06:09.997Z,83.84
2023-01-31T04:08:37.941Z,83.79
2023-01-31T04:11:07.723Z,83.99
2023-01-31T04:13:35.883Z,84.38
2023-01-31T04:16:04.837Z,84.02
2023-01-31T04:18:33.705Z,83.97
2023-01-31T04:21:02.583Z,84.09
2023-01-31T04:23:30.244Z,84.05
2023-01-31T04:25:57.854Z,84.44
2023-01-31T04:28:25.667Z,84.92
2023-01-31T04:30:55.317Z,85.34
2023-01-31T04:33:24.291Z,85.61
2023-01-31T04:35:52.873Z,85.65
2023-01-31T04:38:22.547Z,85.96
2023-01-31T04:40:52.482Z,86.35
2023-01-31T04:43:22.200Z,86.47
2023-01-31T04:45:54.480Z,86.87
2023-01-31T04:48:24.370Z,87.09
2023-01-31T04:50:52.040Z,87.48
2023-01-31T04:53:22.107Z,87.65
2023-01-31T04:55:57.169Z,87.78
2023-01-31T04:58:24.811Z,88.35
2023-01-31T05:00:55.015Z,88.39
2023-01-31T05:03:22.640Z,89.04
2023-01-31T05:05:52.007Z,88.68
2023-01-31T05:08:19.623Z,89.06
2023-01-31T05:10:49.834Z,90.34
2023-01-31T05:13:17.396Z,91.89
2023-01-31T05:15:50.344Z,93.66
2023-01-31T05:18:19.300Z,93.62
2023-01-31T05:20:46.897Z,94.26
2023-01-31T05:23:19.246Z,94.88
2023-01-31T05:25:51.016Z,95.83
2023-01-31T05:28:18.791Z,95.38
2023-01-31T05:30:46.759Z,94.80
2023-01-31T05:33:14.987Z,94.70
2023-01-31T05:35:43.101Z,94.61
2023-01-31T05:38:11.021Z,94.32
2023-01-31T05:40:38.989Z,93.63
2023-01-31T05:43:06.713Z,92.72
2023-01-31T05:45:34.491Z,93.06
2023-01-31T05:48:02.491Z,93.41
2023-01-31T05:50:30.392Z,92.52
2023-01-31T05:53:03.638Z,91.65
2023-01-31T05:55:31.384Z,91.86
2023-01-31T05:58:01.425Z,90.87
2023-01-31T06:00:29.675Z,90.81
2023-01-31T06:03:01.143Z,90.52
2023-01-31T06:05:30.949Z,89.82
2023-01-31T06:07:59.035Z,90.09
2023-01-31T06:10:27.207Z,90.04
2023-01-31T06:12:54.846Z,89.29
2023-01-31T06:15:22.767Z,88.96
2023-01-31T06:17:50.514Z,88.11
2023-01-31T06:20:18.303Z,87.89
2023-01-31T06:22:50.596Z,88.10
2023-01-31T06:25:20.890Z,86.73
2023-01-31T06:27:48.701Z,86.74
2023-01-31T06:30:16.405Z,85.07
2023-01-31T06:32:44.033Z,84.90
2023-01-31T06:35:11.646Z,85.26
2023-01-31T06:37:39.287Z,85.44
2023-01-31T06:40:07.436Z,85.10
2023-01-31T06:42:37.726Z,85.18
2023-01-31T06:45:05.585Z,85.34
2023-01-31T06:47:34.506Z,83.81
2023-01-31T06:50:02.463Z,83.22
2023-01-31T06:52:31.486Z,83.22
2023-01-31T06:54:59.201Z,83.11
2023-01-31T06:57:26.794Z,82.45
2023-01-31T06:59:54.380Z,81.56
2023-01-31T07:02:21.982Z,81.56
2023-01-31T07:04:49.931Z,80.51
2023-01-31T07:07:20.301Z,80.48
2023-01-31T07:09:47.908Z,79.24
2023-01-31T07:12:15.569Z,78.18
2023-01-31T07:14:43.707Z,77.33
2023-01-31T07:17:11.347Z,75.62
2023-01-31T07:19:39.012Z,74.53
2023-01-31T07:22:08.966Z,73.70
2023-01-31T07:24:36.578Z,73.82
2023-01-31T07:27:04.283Z,74.43
2023-01-31T07:29:32.463Z,74.47
2023-01-31T07:32:00.367Z,73.80
2023-01-31T07:34:28.191Z,74.08
2023-01-31T07:36:55.814Z,73.26
2023-01-31T07:39:23.735Z,72.71
2023-01-31T07:41:53.689Z,72.50
2023-01-31T07:44:21.331Z,72.41
2023-01-31T07:46:49.872Z,71.32
2023-01-31T07:49:19.934Z,70.24
2023-01-31T07:51:49.196Z,69.34
2023-01-31T07:54:17.008Z,67.65
2023-01-31T07:56:47.782Z,65.00
2023-01-31T07:59:16.317Z,62.09
2023-01-31T08:02:01.405Z,58.97
2023-01-31T08:04:32.083Z,58.70
2023-01-31T08:07:03.935Z,54.43
2023-01-31T08:09:32.133Z,55.93
2023-01-31T08:11:59.892Z,53.56
2023-01-31T08:14:29.383Z,52.67
2023-01-31T08:16:59.191Z,52.66
2023-01-31T08:19:29.723Z,52.53
2023-01-31T08:22:05.948Z,51.33
2023-01-31T08:24:36.214Z,50.12
2023-01-31T08:27:09.170Z,52.42
2023-01-31T08:29:37.363Z,50.77
2023-01-31T08:32:07.793Z,48.34
2023-01-31T08:34:37.527Z,49.91
2023-01-31T08:37:05.257Z,48.89
2023-01-31T08:39:33.538Z,48.66
2023-01-31T08:42:01.571Z,49.05
2023-01-31T08:44:29.176Z,46.09
2023-01-31T08:46:56.870Z,47.04
2023-01-31T08:49:26.751Z,46.17
2023-01-31T08:51:59.133Z,46.16
2023-01-31T08:54:26.736Z,46.90
2023-01-31T08:56:54.365Z,47.14
2023-01-31T08:59:24.267Z,47.22
2023-01-31T09:01:54.318Z,48.11
2023-01-31T09:04:24.284Z,46.12
2023-01-31T09:06:54.838Z,45.90
2023-01-31T09:09:22.749Z,46.70
2023-01-31T09:11:52.718Z,46.21
2023-01-31T09:14:20.329Z,47.36
2023-01-31T09:16:48.327Z,48.24
2023-01-31T09:19:17.623Z,48.06
2023-01-31T09:21:45.193Z,47.62
2023-01-31T09:24:12.863Z,47.03
2023-01-31T09:26:40.629Z,47.86
2023-01-31T09:29:10.757Z,47.65
2023-01-31T09:31:39.683Z,47.09
2023-01-31T09:34:14.804Z,45.87
2023-01-31T09:36:42.724Z,46.58
2023-01-31T09:39:16.140Z,47.74
2023-01-31T09:41:49.321Z,47.58
2023-01-31T09:44:41.223Z,46.34
2023-01-31T09:47:14.946Z,48.01
2023-01-31T09:49:53.887Z,47.16
2023-01-31T09:52:23.202Z,47.49
2023-01-31T09:54:50.965Z,46.91
2023-01-31T09:57:40.344Z,47.10
2023-01-31T10:00:20.961Z,48.30
2023-01-31T10:03:08.154Z,51.36
2023-01-31T10:05:41.671Z,53.86
2023-01-31T10:08:12.432Z,55.08
2023-01-31T10:11:00.534Z,51.89
2023-01-31T10:13:39.754Z,50.21
2023-01-31T10:16:23.822Z,49.12
2023-01-31T10:18:57.317Z,47.88
2023-01-31T10:21:30.354Z,47.23
2023-01-31T10:24:13.588Z,48.57
2023-01-31T10:26:47.963Z,47.75
2023-01-31T10:29:29.475Z,48.01
2023-01-31T10:32:06.287Z,49.71
2023-01-31T10:34:36.322Z,48.04
2023-01-31T10:37:15.095Z,46.96
2023-01-31T10:39:57.028Z,45.02
2023-01-31T10:42:36.309Z,45.27
2023-01-31T10:45:17.306Z,45.12
2023-01-31T10:48:01.344Z,47.32
2023-01-31T10:50:40.329Z,47.26
2023-01-31T10:53:41.191Z,48.32
2023-01-31T10:56:14.738Z,48.22
2023-01-31T10:58:42.578Z,50.81
2023-01-31T11:01:12.257Z,49.22
2023-01-31T11:03:50.035Z,49.63
2023-01-31T11:06:20.329Z,48.46
2023-01-31T11:09:00.571Z,47.45
2023-01-31T11:11:30.377Z,45.97
2023-01-31T11:14:08.530Z,46.61
2023-01-31T11:16:39.094Z,47.05
2023-01-31T11:19:23.168Z,47.34
2023-01-31T11:21:53.789Z,47.88
2023-01-31T11:24:25.295Z,47.15
2023-01-31T11:27:07.057Z,46.75
2023-01-31T11:29:39.631Z,46.57
2023-01-31T11:32:22.740Z,45.86
2023-01-31T11:35:16.070Z,47.42
2023-01-31T11:38:11.574Z,47.89
2023-01-31T11:40:42.773Z,47.63
2023-01-31T11:43:22.453Z,47.94
2023-01-31T11:46:07.158Z,47.08
2023-01-31T11:48:46.803Z,45.76
2023-01-31T11:51:32.815Z,46.52
2023-01-31T11:54:17.849Z,45.27
2023-01-31T11:56:46.661Z,45.28
2023-01-31T11:59:19.036Z,44.13
2023-01-31T12:01:53.683Z,42.00
2023-01-31T12:04:31.050Z,44.07
2023-01-31T12:07:30.401Z,44.84
2023-01-31T12:10:02.029Z,46.18
2023-01-31T12:12:36.293Z,46.55
2023-01-31T12:15:14.288Z,46.03
2023-01-31T12:17:47.517Z,45.95
2023-01-31T12:20:33.173Z,45.77
2023-01-31T12:23:08.925Z,46.38
2023-01-31T12:26:10.023Z,46.70
2023-01-31T12:29:07.629Z,46.52
2023-01-31T12:31:51.073Z,46.64
2023-01-31T12:34:21.556Z,48.07
2023-01-31T12:36:55.906Z,48.80
2023-01-31T12:39:32.706Z,49.29
2023-01-31T12:42:06.118Z,49.42
2023-01-31T12:44:44.253Z,50.63
2023-01-31T12:48:01.440Z,51.32
2023-01-31T12:50:51.991Z,52.66
2023-01-31T12:53:29.539Z,52.68
2023-01-31T12:56:18.580Z,53.43
2023-01-31T12:58:52.296Z,54.14
2023-01-31T13:01:37.813Z,53.72
2023-01-31T13:04:24.409Z,54.13
2023-01-31T13:07:00.215Z,56.16
2023-01-31T13:09:37.734Z,56.43
2023-01-31T13:12:11.188Z,57.24
2023-01-31T13:14:43.263Z,58.08
2023-01-31T13:17:21.100Z,59.00
2023-01-31T13:20:00.149Z,60.45
2023-01-31T13:22:48.012Z,57.79
2023-01-31T13:25:30.930Z,56.16
2023-01-31T13:28:07.069Z,56.11
2023-01-31T13:30:43.335Z,58.00
2023-01-31T13:33:49.575Z,59.84
2023-01-31T13:36:29.999Z,60.05
2023-01-31T13:38:59.091Z,61.38
2023-01-31T13:41:33.968Z,61.56
2023-01-31T13:44:02.712Z,61.74
2023-01-31T13:46:39.721Z,61.85
2023-01-31T13:49:17.052Z,63.04
2023-01-31T13:51:50.503Z,62.63
2023-01-31T13:54:42.040Z,64.16
2023-01-31T13:57:26.197Z,63.05
2023-01-31T14:00:06.457Z,64.56
2023-01-31T14:02:41.207Z,64.60
2023-01-31T14:05:44.669Z,64.25
2023-01-31T14:08:49.913Z,64.33
2023-01-31T14:11:17.604Z,64.98
2023-01-31T14:13:49.945Z,64.99
2023-01-31T14:16:46.259Z,65.06
2023-01-31T14:19:20.132Z,64.65
2023-01-31T14:22:04.500Z,64.93
2023-01-31T14:24:50.680Z,64.50
2023-01-31T14:27:40.956Z,65.70
2023-01-31T14:30:13.500Z,65.61
2023-01-31T14:32:45.932Z,66.50
2023-01-31T14:35:13.525Z,67.45
2023-01-31T14:38:12.894Z,68.17
2023-01-31T14:40:49.531Z,68.51
2023-01-31T14:43:42.849Z,69.05
2023-01-31T14:46:13.140Z,68.79
2023-01-31T14:49:00.755Z,69.00
2023-01-31T14:51:58.702Z,69.35
2023-01-31T14:54:35.045Z,69.64
2023-01-31T14:57:20.606Z,70.03
2023-01-31T14:59:54.539Z,70.64
2023-01-31T15:02:34.463Z,69.68
2023-01-31T15:05:05.749Z,70.77
2023-01-31T15:07:34.632Z,70.61
2023-01-31T15:10:04.962Z,70.43
2023-01-31T15:12:56.131Z,70.70
2023-01-31T15:15:37.167Z,70.52
2023-01-31T15:18:25.037Z,70.55
2023-01-31T15:21:05.947Z,71.63
2023-01-31T15:23:36.863Z,72.69
2023-01-31T15:26:05.131Z,75.38
2023-01-31T15:28:42.937Z,73.69
2023-01-31T15:31:20.251Z,75.64
2023-01-31T15:33:54.328Z,75.74
2023-01-31T15:36:39.954Z,75.73
2023-01-31T15:39:23.561Z,77.81
2023-01-31T15:41:52.893Z,77.65
2023-01-31T15:44:25.731Z,76.54
2023-01-31T15:46:58.881Z,76.25
2023-01-31T15:49:39.683Z,77.59
2023-01-31T15:52:23.429Z,76.94
2023-01-31T15:54:58.383Z,77.98
2023-01-31T15:57:43.595Z,78.31
2023-01-31T16:00:40.892Z,78.05
2023-01-31T16:03:21.391Z,77.98
2023-01-31T16:05:55.801Z,78.04
2023-01-31T16:08:31.271Z,77.95
2023-01-31T16:10:59.719Z,77.55
2023-01-31T16:13:27.938Z,78.34
2023-01-31T16:15:55.847Z,78.63
2023-01-31T16:18:24.081Z,79.06
2023-01-31T16:20:55.206Z,78.63
2023-01-31T16:23:37.675Z,79.19
2023-01-31T16:26:16.841Z,79.45
2023-01-31T16:28:48.111Z,78.88
2023-01-31T16:31:18.254Z,79.57
2023-01-31T16:33:51.172Z,79.03
2023-01-31T16:36:25.707Z,80.25
2023-01-31T16:39:04.843Z,79.74
2023-01-31T16:41:50.575Z,79.51
2023-01-31T16:44:26.811Z,79.65
2023-01-31T16:46:56.626Z,79.92
2023-01-31T16:49:30.224Z,80.10
2023-01-31T16:52:30.809Z,80.13
2023-01-31T16:55:13.927Z,80.52
2023-01-31T16:57:45.016Z,80.21
2023-01-31T17:00:24.860Z,80.14
2023-01-31T17:02:57.502Z,80.26
2023-01-31T17:05:30.049Z,80.68
2023-01-31T17:07:59.599Z,80.33
2023-01-31T17:10:30.032Z,80.44
2023-01-31T17:13:01.233Z,79.96
2023-01-31T17:15:30.982Z,80.37
2023-01-31T17:18:03.447Z,80.14
2023-01-31T17:20:38.073Z,80.08
2023-01-31T17:23:06.348Z,80.17
2023-01-31T17:25:37.677Z,80.36
2023-01-31T17:28:06.422Z,80.12
2023-01-31T17:30:36.246Z,80.06
2023-01-31T17:33:05.898Z,80.32
2023-01-31T17:35:38.770Z,80.09
2023-01-31T17:38:08.978Z,80.90
2023-01-31T17:40:39.369Z,80.38
2023-01-31T17:43:18.846Z,80.55
2023-01-31T17:45:46.544Z,80.06
2023-01-31T17:48:17.357Z,79.81
2023-01-31T17:50:53.536Z,79.99
2023-01-31T17:53:23.857Z,79.70
2023-01-31T17:55:51.888Z,80.06
2023-01-31T17:58:20.364Z,79.79
2023-01-31T18:00:48.058Z,79.89
2023-01-31T18:03:18.958Z,80.17
2023-01-31T18:05:49.696Z,80.34
2023-01-31T18:08:17.967Z,80.73
2023-01-31T18:10:45.959Z,81.11
2023-01-31T18:13:13.924Z,81.13
2023-01-31T18:15:41.708Z,81.43
2023-01-31T18:18:11.699Z,81.34
2023-01-31T18:20:40.910Z,82.23
2023-01-31T18:23:10.933Z,82.43
2023-01-31T18:25:41.288Z,82.95
2023-01-31T18:28:11.372Z,82.54
2023-01-31T18:30:43.129Z,82.53
2023-01-31T18:33:13.167Z,82.81
2023-01-31T18:35:40.812Z,82.76
2023-01-31T18:38:13.522Z,82.90
2023-01-31T18:40:41.438Z,83.00
2023-01-31T18:43:08.995Z,82.65
2023-01-31T18:45:38.741Z,82.50
2023-01-31T18:48:11.085Z,82.52
2023-01-31T18:50:41.963Z,82.45
2023-01-31T18:53:11.263Z,82.66
2023-01-31T18:55:41.280Z,82.41
2023-01-31T18:58:08.887Z,82.54
2023-01-31T19:00:38.905Z,82.00
2023-01-31T19:03:06.592Z,81.76
2023-01-31T19:05:34.230Z,79.78
2023-01-31T19:08:06.734Z,80.38
2023-01-31T19:10:35.121Z,79.91
2023-01-31T19:13:05.480Z,80.20
2023-01-31T19:15:33.251Z,80.02
2023-01-31T19:18:00.863Z,80.26
2023-01-31T19:20:28.858Z,79.45
2023-01-31T19:22:59.192Z,79.86
2023-01-31T19:25:29.154Z,79.21
2023-01-31T19:28:00.127Z,78.27
2023-01-31T19:30:28.024Z,79.00
2023-01-31T19:32:55.645Z,78.63
2023-01-31T19:35:23.677Z,78.38
2023-01-31T19:37:51.450Z,78.18
2023-01-31T19:40:19.157Z,76.94
2023-01-31T19:42:46.855Z,76.50
2023-01-31T19:45:19.823Z,77.12
2023-01-31T19:47:50.846Z,77.17
2023-01-31T19:50:19.512Z,77.66
2023-01-31T19:52:47.107Z,78.41
2023-01-31T19:55:14.967Z,79.05
2023-01-31T19:57:42.557Z,79.37
2023-01-31T20:00:12.813Z,80.28
2023-01-31T20:02:43.186Z,80.22
2023-01-31T20:05:13.122Z,80.20
2023-01-31T20:07:44.014Z,80.60
2023-01-31T20:10:13.246Z,80.98
2023-01-31T20:12:41.567Z,81.69
2023-01-31T20:15:09.982Z,81.92
2023-01-31T20:17:39.766Z,82.82
2023-01-31T20:20:08.646Z,83.78
2023-01-31T20:22:37.384Z,83.74
2023-01-31T20:25:07.869Z,83.94
2023-01-31T20:27:35.609Z,84.55
2023-01-31T20:30:03.324Z,84.81
2023-01-31T20:32:31.011Z,84.79
2023-01-31T20:35:00.292Z,85.90
2023-01-31T20:37:28.804Z,87.26
2023-01-31T20:39:57.026Z,87.23
2023-01-31T20:42:31.494Z,88.61
2023-01-31T20:44:59.227Z,89.41
2023-01-31T20:47:26.809Z,89.48
2023-01-31T20:49:54.453Z,89.29
2023-01-31T20:52:24.303Z,89.53
2023-01-31T20:54:52.445Z,91.66
2023-01-31T20:57:20.287Z,91.90
2023-01-31T20:59:48.038Z,91.72
2023-01-31T21:02:16.255Z,91.87
2023-01-31T21:04:43.998Z,92.03
2023-01-31T21:07:11.628Z,93.46
2023-01-31T21:09:39.248Z,94.18
2023-01-31T21:12:07.074Z,93.35
2023-01-31T21:14:34.676Z,92.55
2023-01-31T21:17:02.278Z,93.88
2023-01-31T21:19:30.549Z,93.91
2023-01-31T21:21:58.211Z,94.87
2023-01-31T21:24:25.821Z,94.64
2023-01-31T21:26:53.549Z,95.91
2023-01-31T21:29:23.676Z,94.02
2023-01-31T21:31:53.454Z,95.49
2023-01-31T21:34:22.989Z,95.61
2023-01-31T21:36:50.642Z,94.91
2023-01-31T21:39:20.575Z,95.49
2023-01-31T21:42:05.499Z,95.55
2023-01-31T21:44:33.061Z,95.16
2023-01-31T21:47:02.087Z,94.87
2023-01-31T21:49:31.282Z,95.48
2023-01-31T21:51:58.916Z,95.08
2023-01-31T21:54:26.514Z,96.32
2023-01-31T21:56:56.601Z,95.54
2023-01-31T21:59:30.381Z,95.42
2023-01-31T22:01:59.370Z,95.84
2023-01-31T22:04:31.117Z,95.87
2023-01-31T22:06:58.699Z,96.56
2023-01-31T22:09:30.044Z,97.03
2023-01-31T22:11:57.639Z,96.29
2023-01-31T22:14:27.729Z,96.61
2023-01-31T22:16:56.840Z,97.08
2023-01-31T22:19:24.485Z,96.91
2023-01-31T22:21:54.524Z,97.06
2023-01-31T22:24:22.222Z,96.99
2023-01-31T22:26:49.812Z,96.67
2023-01-31T22:29:17.448Z,96.68
2023-01-31T22:31:47.787Z,97.15
2023-01-31T22:34:17.312Z,97.43
2023-01-31T22:36:45.579Z,97.44
2023-01-31T22:39:15.985Z,98.27
2023-01-31T22:41:46.193Z,98.45
2023-01-31T22:44:13.777Z,96.91
2023-01-31T22:46:41.441Z,97.41
2023-01-31T22:49:09.178Z,97.59
2023-01-31T22:51:39.210Z,97.91
2023-01-31T22:54:06.872Z,98.48
2023-01-31T22:56:35.755Z,98.09
2023-01-31T22:59:05.938Z,98.83
2023-01-31T23:01:36.305Z,98.74
2023-01-31T23:04:06.287Z,97.32
2023-01-31T23:06:35.519Z,98.43
2023-01-31T23:09:06.138Z,98.78
2023-01-31T23:11:33.962Z,98.98
2023-01-31T23:14:01.542Z,99.77
2023-01-31T23:16:43.013Z,98.72
2023-01-31T23:19:14.109Z,99.40
2023-01-31T23:21:43.570Z,99.04
2023-01-31T23:24:14.398Z,98.84
2023-01-31T23:26:42.404Z,98.82
2023-01-31T23:29:10.064Z,99.34
2023-01-31T23:31:37.892Z,99.17
2023-01-31T23:34:07.321Z,99.38
2023-01-31T23:36:37.588Z,98.21
2023-01-31T23:39:05.904Z,99.17
2023-01-31T23:41:33.495Z,98.73
2023-01-31T23:44:01.099Z,98.99
2023-01-31T23:46:28.948Z,99.19
2023-01-31T23:48:56.578Z,98.73
2023-01-31T23:51:24.246Z,98.78
2023-01-31T23:53:52.898Z,98.39
2023-01-31T23:56:20.500Z,98.39
2023-01-31T23:58:48.201Z,98.40
